Time;durP1;ratioP1;P1;durP2;ratioP2;P2;SDS_P1;SDS_P2;PMS_P1;PMS_P2;Temp;Humidity;BMP_temperature;BMP_pressure;BME280_temperature;BME280_humidity;BME280_pressure;Samples;Min_cycle;Max_cycle;Signal;HPM_P1;HPM_P2
2022/05/11 00:01:57;;;;;;;;;;;23.30;98.50;;;;;;5045057;28;19929;-57
2022/05/11 00:04:24;;;;;;;;;;;23.30;98.50;;;;;;5036801;28;19929;-57
2022/05/11 00:06:51;;;;;;;;;;;23.30;98.60;;;;;;5039590;28;19929;-54
2022/05/11 00:09:19;;;;;;;;;;;23.20;98.70;;;;;;5052917;28;20399;-53
2022/05/11 00:11:46;;;;;;;;;;;23.30;98.80;;;;;;5056793;28;19939;-55
2022/05/11 00:14:13;;;;;;;;;;;23.30;98.90;;;;;;5050391;28;19924;-57
2022/05/11 00:16:40;;;;;;;;;;;23.30;99.00;;;;;;5046217;28;19932;-53
2022/05/11 00:19:08;;;;;;;;;;;23.30;99.10;;;;;;5042138;28;19944;-54
2022/05/11 00:21:36;;;;;;;;;;;23.30;99.20;;;;;;5035395;28;19925;-57
2022/05/11 00:24:03;;;;;;;;;;;23.20;99.20;;;;;;5021517;28;20360;-54
2022/05/11 00:26:30;;;;;;;;;;;23.20;99.30;;;;;;5023664;28;19929;-57
2022/05/11 00:28:57;;;;;;;;;;;23.30;99.40;;;;;;5049686;28;20443;-58
2022/05/11 00:31:24;;;;;;;;;;;23.30;99.50;;;;;;5041323;28;20431;-58
2022/05/11 00:33:52;;;;;;;;;;;23.20;99.60;;;;;;5037935;28;19928;-58
2022/05/11 00:36:19;;;;;;;;;;;23.30;99.60;;;;;;5036481;28;19936;-58
2022/05/11 00:38:47;;;;;;;;;;;23.30;99.70;;;;;;5042930;28;19929;-57
2022/05/11 00:41:14;;;;;;;;;;;23.30;99.60;;;;;;5039733;28;19925;-58
2022/05/11 00:43:51;;;;;;;;;;;23.30;99.60;;;;;;5037529;28;19936;-58
2022/05/11 00:46:33;;;;;;;;;;;23.30;99.80;;;;;;5050464;28;19936;-56
2022/05/11 00:49:48;;;;;;;;;;;23.30;99.60;;;;;;5028439;28;19935;-57
2022/05/11 00:51:51;;;;;;;;;;;23.20;99.60;;;;;;5032250;28;19925;-57
2022/05/11 00:54:20;;;;;;;;;;;23.30;99.50;;;;;;5047373;28;19928;-56
2022/05/11 00:56:54;;;;;;;;;;;23.30;99.50;;;;;;5039326;28;19929;-58
2022/05/11 00:59:24;;;;;;;;;;;23.30;99.50;;;;;;5050964;28;19928;-55
2022/05/11 01:01:51;;;;;;;;;;;23.30;99.40;;;;;;5038439;28;19937;-53
2022/05/11 01:04:20;;;;;;;;;;;23.30;98.90;;;;;;5038487;28;20320;-57
2022/05/11 01:06:47;;;;;;;;;;;23.20;98.70;;;;;;5039601;28;19940;-55
2022/05/11 01:09:14;;;;;;;;;;;23.20;97.40;;;;;;5025247;28;19929;-55
2022/05/11 01:11:45;;;;;;;;;;;22.90;95.40;;;;;;5047451;28;19929;-54
2022/05/11 01:14:14;;;;;;;;;;;22.70;95.10;;;;;;5030049;28;20633;-58
2022/05/11 01:16:42;;;;;;;;;;;22.50;95.10;;;;;;5042098;28;19936;-56
2022/05/11 01:19:14;;;;;;;;;;;22.40;95.20;;;;;;5045534;28;19952;-56
2022/05/11 01:21:51;;;;;;;;;;;22.20;95.20;;;;;;5039809;28;20503;-54
2022/05/11 01:24:21;;;;;;;;;;;22.10;95.10;;;;;;5040146;28;19936;-54
2022/05/11 01:26:49;;;;;;;;;;;22.20;95.60;;;;;;5055413;28;20423;-54
2022/05/11 01:29:16;;;;;;;;;;;22.40;96.20;;;;;;5043469;28;20308;-57
2022/05/11 01:31:43;;;;;;;;;;;22.50;96.00;;;;;;5037658;28;19925;-55
2022/05/11 01:34:14;;;;;;;;;;;22.70;95.90;;;;;;5037371;28;19929;-56
2022/05/11 01:36:41;;;;;;;;;;;22.80;95.80;;;;;;5022259;28;20020;-55
2022/05/11 01:39:09;;;;;;;;;;;22.90;95.80;;;;;;5046633;28;19933;-57
2022/05/11 01:41:38;;;;;;;;;;;23.00;95.90;;;;;;5043087;28;20666;-57
2022/05/11 01:44:08;;;;;;;;;;;22.90;95.90;;;;;;5040584;28;19928;-55
2022/05/11 01:46:35;;;;;;;;;;;23.00;96.00;;;;;;5043330;28;19925;-57
2022/05/11 01:49:03;;;;;;;;;;;23.00;96.10;;;;;;5034015;28;19955;-53
2022/05/11 01:51:30;;;;;;;;;;;23.00;96.00;;;;;;5043078;28;19929;-57
2022/05/11 01:53:57;;;;;;;;;;;23.00;96.30;;;;;;5032901;28;19936;-55
2022/05/11 01:56:25;;;;;;;;;;;23.00;96.30;;;;;;5042410;28;19925;-57
2022/05/11 01:58:53;;;;;;;;;;;23.00;96.40;;;;;;5028705;28;19929;-56
2022/05/11 02:01:25;;;;;;;;;;;23.00;96.40;;;;;;5032065;28;19979;-53
2022/05/11 02:03:52;;;;;;;;;;;23.00;96.50;;;;;;5039118;28;19929;-58
2022/05/11 02:09:06;;;;;;;;;;;23.00;96.50;;;;;;5028326;28;19929;-55
2022/05/11 02:11:33;;;;;;;;;;;23.00;96.60;;;;;;5044324;28;19929;-55
2022/05/11 02:14:01;;;;;;;;;;;23.00;96.70;;;;;;5035049;28;19929;-54
2022/05/11 02:16:28;;;;;;;;;;;23.00;96.70;;;;;;5048046;28;19932;-57
2022/05/11 02:18:55;;;;;;;;;;;23.00;96.70;;;;;;5042436;28;19935;-56
2022/05/11 02:21:23;;;;;;;;;;;23.00;96.80;;;;;;5032855;28;20400;-57
2022/05/11 02:23:51;;;;;;;;;;;23.00;96.80;;;;;;5037286;28;19932;-56
2022/05/11 02:26:21;;;;;;;;;;;23.00;96.80;;;;;;5045028;28;19933;-56
2022/05/11 02:28:49;;;;;;;;;;;23.00;96.90;;;;;;5035441;28;19948;-56
2022/05/11 02:31:17;;;;;;;;;;;23.00;96.90;;;;;;5045646;28;19952;-56
2022/05/11 02:33:44;;;;;;;;;;;23.00;97.00;;;;;;5043098;28;19929;-52
2022/05/11 02:36:12;;;;;;;;;;;23.00;97.20;;;;;;5038722;28;19936;-57
2022/05/11 02:38:40;;;;;;;;;;;23.00;97.10;;;;;;5032044;28;19951;-55
2022/05/11 02:41:07;;;;;;;;;;;23.00;97.00;;;;;;5028736;28;19925;-57
2022/05/11 02:43:34;;;;;;;;;;;23.00;97.10;;;;;;5032934;28;20271;-56
2022/05/11 02:46:01;;;;;;;;;;;23.00;97.10;;;;;;5040368;28;19936;-55
2022/05/11 02:48:31;;;;;;;;;;;23.00;97.10;;;;;;5031654;28;20293;-58
2022/05/11 02:50:59;;;;;;;;;;;23.00;97.20;;;;;;5045550;28;19925;-57
2022/05/11 02:53:27;;;;;;;;;;;23.00;97.20;;;;;;5044179;28;19925;-58
2022/05/11 02:55:54;;;;;;;;;;;23.00;97.20;;;;;;5040211;28;19935;-56
2022/05/11 02:58:23;;;;;;;;;;;23.00;97.20;;;;;;5033275;28;19929;-57
2022/05/11 03:00:51;;;;;;;;;;;23.00;97.20;;;;;;5046377;28;19946;-56
2022/05/11 03:03:19;;;;;;;;;;;23.00;97.20;;;;;;5040136;28;20561;-57
2022/05/11 03:05:47;;;;;;;;;;;22.90;97.20;;;;;;5037361;28;19929;-55
2022/05/11 03:08:14;;;;;;;;;;;23.00;97.30;;;;;;5027793;28;19974;-56
2022/05/11 03:10:41;;;;;;;;;;;23.00;97.30;;;;;;5045246;28;19929;-58
2022/05/11 03:13:08;;;;;;;;;;;22.90;97.30;;;;;;5032490;28;19933;-52
2022/05/11 03:15:36;;;;;;;;;;;23.00;97.50;;;;;;5048062;28;19929;-57
2022/05/11 03:18:03;;;;;;;;;;;23.00;97.40;;;;;;5044098;28;20150;-55
2022/05/11 03:20:31;;;;;;;;;;;23.00;97.50;;;;;;5037288;28;19936;-57
2022/05/11 03:22:58;;;;;;;;;;;23.00;97.40;;;;;;5032471;28;19932;-58
2022/05/11 03:25:26;;;;;;;;;;;23.00;97.60;;;;;;5034749;28;19932;-56
2022/05/11 03:27:53;;;;;;;;;;;23.00;97.60;;;;;;5028900;28;19929;-54
2022/05/11 03:30:21;;;;;;;;;;;23.00;97.60;;;;;;5046258;28;19936;-57
2022/05/11 03:35:34;;;;;;;;;;;23.00;97.70;;;;;;5037947;28;19961;-59
2022/05/11 03:38:01;;;;;;;;;;;22.90;97.80;;;;;;5034046;28;20324;-59
2022/05/11 03:40:28;;;;;;;;;;;22.90;97.60;;;;;;5033237;28;19952;-58
2022/05/11 03:42:55;;;;;;;;;;;22.90;97.60;;;;;;5035956;28;19925;-58
2022/05/11 03:45:24;;;;;;;;;;;22.90;97.70;;;;;;5055854;28;19936;-56
2022/05/11 03:47:51;;;;;;;;;;;22.90;97.70;;;;;;5040489;28;19956;-56
2022/05/11 03:50:22;;;;;;;;;;;22.90;97.70;;;;;;5048425;28;20339;-57
2022/05/11 03:52:50;;;;;;;;;;;22.90;97.70;;;;;;5038215;28;19929;-53
2022/05/11 03:55:18;;;;;;;;;;;22.90;97.70;;;;;;5015144;28;19929;-54
2022/05/11 03:57:46;;;;;;;;;;;23.00;97.70;;;;;;5016879;28;19939;-54
2022/05/11 04:00:15;;;;;;;;;;;22.90;97.90;;;;;;5047297;28;19925;-53
2022/05/11 04:02:43;;;;;;;;;;;23.00;97.90;;;;;;5050983;28;19928;-54
2022/05/11 04:05:11;;;;;;;;;;;22.90;97.80;;;;;;5040297;28;19925;-57
2022/05/11 04:07:39;;;;;;;;;;;22.90;97.80;;;;;;5052203;28;20334;-55
2022/05/11 04:10:06;;;;;;;;;;;22.90;97.80;;;;;;5044768;28;19928;-54
2022/05/11 04:12:34;;;;;;;;;;;22.90;97.80;;;;;;5048423;28;19929;-55
2022/05/11 04:15:02;;;;;;;;;;;22.90;97.90;;;;;;5060165;28;19960;-58
2022/05/11 04:17:29;;;;;;;;;;;22.90;97.90;;;;;;5046717;28;19936;-59
2022/05/11 04:19:57;;;;;;;;;;;22.90;97.90;;;;;;5049620;28;19952;-56
2022/05/11 04:22:24;;;;;;;;;;;22.90;98.20;;;;;;5033780;28;20028;-56
2022/05/11 04:24:51;;;;;;;;;;;23.00;98.00;;;;;;5041354;28;19929;-58
2022/05/11 04:27:18;;;;;;;;;;;22.90;98.00;;;;;;5035455;28;20587;-55
2022/05/11 04:29:45;;;;;;;;;;;22.90;98.00;;;;;;5047433;28;19936;-57
2022/05/11 04:32:14;;;;;;;;;;;23.00;98.00;;;;;;5043816;28;20351;-57
2022/05/11 04:34:42;;;;;;;;;;;23.00;98.00;;;;;;5048446;28;19929;-56
2022/05/11 04:37:12;;;;;;;;;;;23.00;98.00;;;;;;5047178;28;19932;-57
2022/05/11 04:39:39;;;;;;;;;;;23.00;98.00;;;;;;5033285;28;19928;-52
2022/05/11 04:42:07;;;;;;;;;;;23.00;98.10;;;;;;5057435;28;19929;-58
2022/05/11 04:44:34;;;;;;;;;;;23.00;98.00;;;;;;5041242;28;19940;-55
2022/05/11 04:47:09;;;;;;;;;;;23.00;98.00;;;;;;5042909;28;19940;-56
2022/05/11 04:49:37;;;;;;;;;;;22.90;98.00;;;;;;5043160;28;19950;-56
2022/05/11 04:52:07;;;;;;;;;;;22.90;98.00;;;;;;5029462;28;19925;-57
2022/05/11 04:54:35;;;;;;;;;;;22.90;98.00;;;;;;5043370;28;19925;-55
2022/05/11 04:57:03;;;;;;;;;;;23.00;98.10;;;;;;5043435;28;19929;-57
2022/05/11 04:59:30;;;;;;;;;;;22.90;98.10;;;;;;5043120;28;20326;-57
2022/05/11 05:01:59;;;;;;;;;;;22.90;98.10;;;;;;5046190;28;19932;-56
2022/05/11 05:04:27;;;;;;;;;;;22.90;98.00;;;;;;5038526;28;19933;-57
2022/05/11 05:06:54;;;;;;;;;;;22.90;98.10;;;;;;5039818;28;19944;-54
2022/05/11 05:09:22;;;;;;;;;;;22.90;98.10;;;;;;5038021;28;19983;-55
2022/05/11 05:11:49;;;;;;;;;;;23.00;98.10;;;;;;5039088;28;19929;-57
2022/05/11 05:14:17;;;;;;;;;;;23.00;98.10;;;;;;5038485;28;20005;-56
2022/05/11 05:16:44;;;;;;;;;;;23.10;98.40;;;;;;5044539;28;19925;-53
2022/05/11 05:19:11;;;;;;;;;;;23.10;98.90;;;;;;5033762;28;19924;-55
2022/05/11 05:21:38;;;;;;;;;;;23.10;99.00;;;;;;5026262;28;19929;-54
2022/05/11 05:24:07;;;;;;;;;;;23.10;98.60;;;;;;5035497;28;19933;-60
2022/05/11 05:26:34;;;;;;;;;;;23.10;98.70;;;;;;5048651;28;19932;-59
2022/05/11 05:31:46;;;;;;;;;;;23.20;98.60;;;;;;5036455;28;21882;-55
2022/05/11 05:34:14;;;;;;;;;;;23.10;98.80;;;;;;5046701;28;20284;-57
2022/05/11 05:36:41;;;;;;;;;;;23.10;98.70;;;;;;5041650;28;20300;-53
2022/05/11 05:39:11;;;;;;;;;;;23.10;98.50;;;;;;5038945;28;20555;-60
2022/05/11 05:41:38;;;;;;;;;;;23.10;98.50;;;;;;5043822;28;19936;-57
2022/05/11 05:44:06;;;;;;;;;;;23.10;98.50;;;;;;5043151;28;19929;-61
2022/05/11 05:46:34;;;;;;;;;;;23.10;98.60;;;;;;5044370;28;20408;-59
2022/05/11 05:49:03;;;;;;;;;;;23.10;98.80;;;;;;5049278;28;19935;-58
2022/05/11 05:51:30;;;;;;;;;;;23.00;98.90;;;;;;5038403;28;19929;-59
2022/05/11 05:53:57;;;;;;;;;;;23.10;99.90;;;;;;5045711;28;19933;-62
2022/05/11 05:56:24;;;;;;;;;;;23.10;99.80;;;;;;5034544;28;20004;-57
2022/05/11 05:58:55;;;;;;;;;;;23.10;99.90;;;;;;5030894;28;19936;-59
2022/05/11 06:01:22;;;;;;;;;;;23.10;99.60;;;;;;5040882;28;19929;-54
2022/05/11 06:03:49;;;;;;;;;;;23.00;98.90;;;;;;5040671;28;19936;-58
2022/05/11 06:06:18;;;;;;;;;;;23.00;98.30;;;;;;5025373;28;19935;-55
2022/05/11 06:08:45;;;;;;;;;;;23.00;97.90;;;;;;5050756;28;19929;-57
2022/05/11 06:11:12;;;;;;;;;;;23.00;97.90;;;;;;5052461;28;19928;-54
2022/05/11 06:13:41;;;;;;;;;;;23.00;97.60;;;;;;5041697;28;20320;-57
2022/05/11 06:16:10;;;;;;;;;;;23.00;97.40;;;;;;5046614;28;19933;-58
2022/05/11 06:18:41;;;;;;;;;;;23.00;96.90;;;;;;5044476;28;19924;-56
2022/05/11 06:21:09;;;;;;;;;;;23.00;96.80;;;;;;5049986;28;19936;-55
2022/05/11 06:23:36;;;;;;;;;;;22.90;96.50;;;;;;5033845;28;19936;-59
2022/05/11 06:26:04;;;;;;;;;;;22.90;96.10;;;;;;5039139;28;19932;-57
2022/05/11 06:28:31;;;;;;;;;;;22.90;96.00;;;;;;5059985;28;19939;-58
2022/05/11 06:31:16;;;;;;;;;;;22.90;96.00;;;;;;5049166;28;19939;-59
2022/05/11 06:33:46;;;;;;;;;;;23.00;95.60;;;;;;5048539;28;20388;-59
2022/05/11 06:36:14;;;;;;;;;;;23.00;95.60;;;;;;5051748;28;19925;-56
2022/05/11 06:38:41;;;;;;;;;;;23.00;95.40;;;;;;5045229;28;19932;-53
2022/05/11 06:41:13;;;;;;;;;;;22.90;95.30;;;;;;5040343;28;19932;-58
2022/05/11 06:43:41;;;;;;;;;;;22.90;95.30;;;;;;5036050;28;19929;-61
2022/05/11 06:46:08;;;;;;;;;;;22.90;95.30;;;;;;5044829;28;19933;-60
2022/05/11 06:48:36;;;;;;;;;;;23.00;95.50;;;;;;5042334;28;20501;-61
2022/05/11 06:51:03;;;;;;;;;;;23.00;95.60;;;;;;5045919;28;19929;-59
2022/05/11 06:59:20;;;;;;;;;;;23.00;95.80;;;;;;5043550;28;19929;-60
2022/05/11 06:59:22;;;;;;;;;;;23.00;95.60;;;;;;5047039;28;19928;-59
2022/05/11 07:01:51;;;;;;;;;;;23.00;95.60;;;;;;5033715;28;19936;-59
2022/05/11 07:04:22;;;;;;;;;;;23.00;95.70;;;;;;5038572;28;19936;-59
2022/05/11 07:06:56;;;;;;;;;;;23.10;95.80;;;;;;5036465;28;19936;-57
2022/05/11 07:09:24;;;;;;;;;;;23.10;95.70;;;;;;5035668;28;19925;-60
2022/05/11 07:14:39;;;;;;;;;;;23.00;95.60;;;;;;5032235;28;19925;-61
2022/05/11 07:17:06;;;;;;;;;;;23.00;95.90;;;;;;5044009;28;19944;-58
2022/05/11 07:19:33;;;;;;;;;;;23.00;96.10;;;;;;5042651;28;19940;-61
2022/05/11 07:22:01;;;;;;;;;;;23.00;96.10;;;;;;5044677;28;19928;-61
2022/05/11 07:24:29;;;;;;;;;;;23.10;96.20;;;;;;5048972;28;19925;-58
2022/05/11 07:26:56;;;;;;;;;;;23.10;96.20;;;;;;5031967;28;19932;-59
2022/05/11 07:29:23;;;;;;;;;;;23.10;96.20;;;;;;5050425;28;19924;-59
2022/05/11 07:31:53;;;;;;;;;;;23.10;96.30;;;;;;5037252;28;19924;-59
2022/05/11 07:34:21;;;;;;;;;;;23.10;96.40;;;;;;5045424;28;20434;-60
2022/05/11 07:36:54;;;;;;;;;;;23.10;96.50;;;;;;5043963;28;19933;-61
2022/05/11 07:39:23;;;;;;;;;;;23.10;96.50;;;;;;5060854;28;19935;-60
2022/05/11 07:41:50;;;;;;;;;;;23.10;96.50;;;;;;5038412;28;19932;-59
2022/05/11 07:44:17;;;;;;;;;;;23.20;96.70;;;;;;5023241;28;19935;-61
2022/05/11 07:46:45;;;;;;;;;;;23.20;96.60;;;;;;5038956;28;19932;-61
2022/05/11 07:49:12;;;;;;;;;;;23.20;96.50;;;;;;5050118;28;19952;-60
2022/05/11 07:51:41;;;;;;;;;;;23.20;96.50;;;;;;5046030;28;20450;-58
2022/05/11 07:54:08;;;;;;;;;;;23.10;96.70;;;;;;5043049;28;20305;-56
2022/05/11 08:02:06;;;;;;;;;;;23.20;96.80;;;;;;5045575;28;19929;-61
2022/05/11 08:04:34;;;;;;;;;;;23.30;96.80;;;;;;5043459;28;20419;-63
2022/05/11 08:07:02;;;;;;;;;;;23.20;96.80;;;;;;5060595;28;19937;-63
2022/05/11 08:09:29;;;;;;;;;;;23.30;96.70;;;;;;5052583;28;19933;-62
2022/05/11 08:11:57;;;;;;;;;;;23.40;96.70;;;;;;5051672;28;19928;-61
2022/05/11 08:14:24;;;;;;;;;;;23.40;96.80;;;;;;5042410;28;19928;-60
2022/05/11 08:16:54;;;;;;;;;;;23.40;96.90;;;;;;5050138;28;20403;-59
2022/05/11 08:19:22;;;;;;;;;;;23.40;96.90;;;;;;5049351;28;19933;-58
2022/05/11 08:21:51;;;;;;;;;;;23.40;96.80;;;;;;5036039;28;19986;-62
2022/05/11 08:24:19;;;;;;;;;;;23.40;96.60;;;;;;5041072;28;19928;-60
2022/05/11 08:26:46;;;;;;;;;;;23.30;96.50;;;;;;5053669;28;20570;-58
2022/05/11 08:33:19;;;;;;;;;;;23.20;96.60;;;;;;5047894;28;19929;-57
2022/05/11 08:34:47;;;;;;;;;;;23.30;97.00;;;;;;5051859;28;19960;-61
2022/05/11 08:37:15;;;;;;;;;;;23.40;97.00;;;;;;5044403;28;19943;-60
2022/05/11 08:39:42;;;;;;;;;;;23.40;97.00;;;;;;5048236;28;20482;-63
2022/05/11 08:42:10;;;;;;;;;;;23.40;97.00;;;;;;5055750;28;19932;-60
2022/05/11 08:44:43;;;;;;;;;;;23.50;97.10;;;;;;5048734;28;20274;-61
2022/05/11 08:47:32;;;;;;;;;;;23.40;97.10;;;;;;5047020;28;19936;-60
2022/05/11 08:50:06;;;;;;;;;;;23.50;97.90;;;;;;5051805;28;19940;-62
2022/05/11 08:52:34;;;;;;;;;;;23.50;98.60;;;;;;5039435;28;19957;-65
2022/05/11 08:55:07;;;;;;;;;;;23.60;99.10;;;;;;5057652;28;19925;-64
2022/05/11 08:57:36;;;;;;;;;;;23.60;99.70;;;;;;5026253;28;19933;-57
2022/05/11 09:00:06;;;;;;;;;;;23.60;99.00;;;;;;5024515;28;19936;-55
2022/05/11 09:02:42;;;;;;;;;;;23.70;99.40;;;;;;5030768;28;19925;-58
2022/05/11 09:05:13;;;;;;;;;;;23.60;99.20;;;;;;5050384;28;19928;-59
2022/05/11 09:07:42;;;;;;;;;;;23.60;99.20;;;;;;5044689;28;19936;-59
2022/05/11 09:10:09;;;;;;;;;;;23.60;98.90;;;;;;5046430;28;19933;-59
2022/05/11 09:12:37;;;;;;;;;;;23.60;98.90;;;;;;5052673;28;19929;-58
2022/05/11 09:15:05;;;;;;;;;;;23.70;99.10;;;;;;5042794;28;20316;-58
2022/05/11 09:17:34;;;;;;;;;;;23.70;98.90;;;;;;5042509;28;19951;-58
2022/05/11 09:20:04;;;;;;;;;;;23.60;98.60;;;;;;5054470;28;19933;-58
2022/05/11 09:22:33;;;;;;;;;;;23.70;98.70;;;;;;5053759;28;19935;-59
2022/05/11 09:25:13;;;;;;;;;;;23.70;98.60;;;;;;5043312;28;19933;-60
2022/05/11 09:27:40;;;;;;;;;;;23.60;98.70;;;;;;5041432;28;19952;-60
2022/05/11 09:30:17;;;;;;;;;;;23.70;98.50;;;;;;5049007;28;19929;-59
2022/05/11 09:32:52;;;;;;;;;;;23.70;98.20;;;;;;5042228;28;19932;-59
2022/05/11 09:35:19;;;;;;;;;;;23.70;98.20;;;;;;5021515;28;19932;-59
2022/05/11 09:37:55;;;;;;;;;;;23.70;97.90;;;;;;5038751;28;19974;-59
2022/05/11 09:40:23;;;;;;;;;;;23.70;97.50;;;;;;5051745;28;19928;-61
2022/05/11 09:42:59;;;;;;;;;;;23.80;97.30;;;;;;5048387;28;19932;-61
2022/05/11 09:45:36;;;;;;;;;;;23.70;97.20;;;;;;5051609;28;20324;-62
2022/05/11 09:48:12;;;;;;;;;;;23.70;97.00;;;;;;5045215;28;20560;-63
2022/05/11 09:50:41;;;;;;;;;;;23.80;96.90;;;;;;5047152;28;20395;-60
2022/05/11 09:53:14;;;;;;;;;;;23.80;96.90;;;;;;5034189;28;19941;-59
2022/05/11 09:55:41;;;;;;;;;;;23.90;97.50;;;;;;5048439;28;19929;-58
2022/05/11 09:58:08;;;;;;;;;;;23.80;97.70;;;;;;5052112;28;19936;-60
2022/05/11 10:00:40;;;;;;;;;;;23.80;97.70;;;;;;5048712;28;20276;-60
2022/05/11 10:03:14;;;;;;;;;;;23.80;97.70;;;;;;5050713;28;19929;-63
2022/05/11 10:05:49;;;;;;;;;;;23.90;97.40;;;;;;5044408;28;20405;-59
2022/05/11 10:08:32;;;;;;;;;;;23.90;97.70;;;;;;5056731;28;20423;-62
2022/05/11 10:11:02;;;;;;;;;;;23.90;97.60;;;;;;5042975;28;19928;-63
2022/05/11 10:13:37;;;;;;;;;;;23.90;97.40;;;;;;5038023;28;19926;-63
2022/05/11 10:21:58;;;;;;;;;;;23.90;97.30;;;;;;5037979;28;19933;-62
2022/05/11 10:24:31;;;;;;;;;;;23.90;97.10;;;;;;5044286;28;19925;-63
2022/05/11 10:27:02;;;;;;;;;;;23.90;97.10;;;;;;5046366;28;19928;-60
2022/05/11 10:29:29;;;;;;;;;;;23.90;97.10;;;;;;5044770;28;19968;-61
2022/05/11 10:32:01;;;;;;;;;;;23.90;96.90;;;;;;5041749;28;19928;-63
2022/05/11 10:34:29;;;;;;;;;;;24.00;97.70;;;;;;5037003;28;19924;-58
2022/05/11 10:37:07;;;;;;;;;;;24.00;98.10;;;;;;5037372;28;19932;-60
2022/05/11 10:39:53;;;;;;;;;;;24.00;97.80;;;;;;5044000;28;19929;-62
2022/05/11 10:42:34;;;;;;;;;;;24.00;98.00;;;;;;5046801;28;19933;-62
2022/05/11 10:45:02;;;;;;;;;;;24.00;98.40;;;;;;5040319;28;19929;-62
2022/05/11 10:47:44;;;;;;;;;;;24.00;98.30;;;;;;5047108;28;20722;-60
2022/05/11 10:50:31;;;;;;;;;;;24.00;98.80;;;;;;5045358;28;19935;-62
2022/05/11 10:53:08;;;;;;;;;;;24.00;98.50;;;;;;5041629;28;19932;-60
2022/05/11 10:55:56;;;;;;;;;;;23.90;98.60;;;;;;5049012;28;20356;-65
2022/05/11 10:58:26;;;;;;;;;;;23.90;98.40;;;;;;5052363;28;19929;-61
2022/05/11 11:01:15;;;;;;;;;;;24.00;98.30;;;;;;5039603;28;19928;-61
2022/05/11 11:03:42;;;;;;;;;;;24.00;94.70;;;;;;5038952;28;20311;-59
2022/05/11 11:09:15;;;;;;;;;;;24.60;86.70;;;;;;5044606;28;19933;-61
2022/05/11 11:11:58;;;;;;;;;;;24.40;88.10;;;;;;5057980;28;19935;-61
2022/05/11 11:14:36;;;;;;;;;;;24.20;90.70;;;;;;5041189;28;19925;-60
2022/05/11 11:17:05;;;;;;;;;;;24.10;91.10;;;;;;5051205;28;19928;-60
2022/05/11 11:19:34;;;;;;;;;;;24.00;91.20;;;;;;5056261;28;20315;-60
2022/05/11 11:22:04;;;;;;;;;;;24.00;91.90;;;;;;5036544;28;20606;-60
2022/05/11 11:24:32;;;;;;;;;;;24.00;92.40;;;;;;5044304;28;20422;-58
2022/05/11 11:27:01;;;;;;;;;;;24.00;92.80;;;;;;5052890;28;19943;-60
2022/05/11 11:29:30;;;;;;;;;;;24.00;92.90;;;;;;5051926;28;19936;-58
2022/05/11 11:31:58;;;;;;;;;;;24.00;93.20;;;;;;5043606;28;19928;-59
2022/05/11 11:34:27;;;;;;;;;;;24.00;93.60;;;;;;5044081;28;19932;-58
2022/05/11 11:36:55;;;;;;;;;;;24.00;94.00;;;;;;5055014;28;19925;-59
2022/05/11 11:39:42;;;;;;;;;;;24.00;93.90;;;;;;5049320;28;19928;-59
2022/05/11 11:42:09;;;;;;;;;;;24.00;94.10;;;;;;5039251;28;20467;-58
2022/05/11 11:44:41;;;;;;;;;;;24.00;93.80;;;;;;5035652;28;20287;-60
2022/05/11 11:47:26;;;;;;;;;;;24.00;93.80;;;;;;5055302;28;19928;-60
2022/05/11 11:49:55;;;;;;;;;;;24.00;93.70;;;;;;5038330;28;19936;-59
2022/05/11 11:52:33;;;;;;;;;;;24.00;91.50;;;;;;5043815;28;20396;-59
2022/05/11 11:55:01;;;;;;;;;;;24.20;90.40;;;;;;5037609;28;19928;-59
2022/05/11 11:57:29;;;;;;;;;;;24.30;88.80;;;;;;5025849;28;20007;-60
2022/05/11 12:00:01;;;;;;;;;;;24.20;89.70;;;;;;5057060;28;19944;-60
2022/05/11 12:02:42;;;;;;;;;;;24.20;89.40;;;;;;5041027;28;19925;-60
2022/05/11 12:05:12;;;;;;;;;;;24.20;88.00;;;;;;5040329;28;20310;-58
2022/05/11 12:16:14;;;;;;;;;;;24.00;88.40;;;;;;5040287;28;19936;-59
2022/05/11 12:18:42;;;;;;;;;;;24.00;88.70;;;;;;5037332;28;19932;-60
2022/05/11 12:21:28;;;;;;;;;;;24.10;88.20;;;;;;5054855;28;19932;-60
2022/05/11 12:23:55;;;;;;;;;;;24.00;88.20;;;;;;5039779;28;19935;-60
2022/05/11 12:26:25;;;;;;;;;;;24.10;88.30;;;;;;5042818;28;20323;-60
2022/05/11 12:29:54;;;;;;;;;;;24.00;88.70;;;;;;5046582;28;19940;-60
2022/05/11 12:31:50;;;;;;;;;;;24.10;88.90;;;;;;5047803;28;20372;-59
2022/05/11 12:34:20;;;;;;;;;;;24.10;88.90;;;;;;5056983;28;19935;-59
2022/05/11 12:36:49;;;;;;;;;;;24.10;88.80;;;;;;5049975;28;19928;-60
2022/05/11 12:39:27;;;;;;;;;;;24.10;88.40;;;;;;5062558;28;19924;-60
2022/05/11 12:41:56;;;;;;;;;;;24.10;88.10;;;;;;5049069;28;19936;-58
2022/05/11 12:44:33;;;;;;;;;;;24.20;88.20;;;;;;5049255;28;19925;-59
2022/05/11 12:47:04;;;;;;;;;;;24.10;88.10;;;;;;5053014;28;20399;-60
2022/05/11 12:49:32;;;;;;;;;;;24.20;88.00;;;;;;5053699;28;20030;-59
2022/05/11 12:52:05;;;;;;;;;;;24.20;87.80;;;;;;5057945;28;19925;-60
2022/05/11 12:54:32;;;;;;;;;;;24.20;87.50;;;;;;5040162;28;19968;-62
2022/05/11 12:57:07;;;;;;;;;;;24.20;87.20;;;;;;5047383;28;19936;-59
2022/05/11 12:59:36;;;;;;;;;;;24.20;86.90;;;;;;5054936;28;20295;-58
2022/05/11 13:02:12;;;;;;;;;;;24.30;87.00;;;;;;5044023;28;20408;-58
2022/05/11 13:04:51;;;;;;;;;;;24.30;86.70;;;;;;5043388;28;19925;-59
2022/05/11 13:07:22;;;;;;;;;;;24.30;86.30;;;;;;5037331;28;20418;-60
2022/05/11 13:09:51;;;;;;;;;;;24.30;86.60;;;;;;5057596;28;20031;-60
2022/05/11 13:12:19;;;;;;;;;;;24.30;86.70;;;;;;5044999;28;19929;-60
2022/05/11 13:14:49;;;;;;;;;;;24.30;86.70;;;;;;5056442;28;19944;-61
2022/05/11 13:17:21;;;;;;;;;;;24.40;87.40;;;;;;5052826;28;19929;-59
2022/05/11 13:20:14;;;;;;;;;;;24.40;86.80;;;;;;5046209;28;19928;-61
2022/05/11 13:22:47;;;;;;;;;;;24.40;87.00;;;;;;5041907;28;19925;-61
2022/05/11 13:25:34;;;;;;;;;;;24.50;87.40;;;;;;5040211;28;19954;-59
2022/05/11 13:28:22;;;;;;;;;;;24.50;87.50;;;;;;5052545;28;19936;-59
2022/05/11 13:30:50;;;;;;;;;;;24.50;87.40;;;;;;5050328;28;19928;-59
2022/05/11 13:33:44;;;;;;;;;;;24.50;87.70;;;;;;5017781;28;19939;-60
2022/05/11 13:36:14;;;;;;;;;;;24.60;86.70;;;;;;5026485;28;19952;-59
2022/05/11 13:38:50;;;;;;;;;;;24.80;85.90;;;;;;5041291;28;19932;-63
2022/05/11 13:41:21;;;;;;;;;;;24.80;86.90;;;;;;5036526;28;19928;-59
2022/05/11 13:43:50;;;;;;;;;;;24.90;88.00;;;;;;5048182;28;19928;-63
2022/05/11 13:46:37;;;;;;;;;;;24.90;88.70;;;;;;5035081;28;19929;-58
2022/05/11 13:49:16;;;;;;;;;;;24.90;89.40;;;;;;5042650;28;19947;-59
2022/05/11 13:51:43;;;;;;;;;;;24.90;90.20;;;;;;5045617;28;19936;-61
2022/05/11 13:54:37;;;;;;;;;;;25.00;90.60;;;;;;5041534;28;19944;-64
2022/05/11 13:57:08;;;;;;;;;;;25.00;90.60;;;;;;5047861;28;19939;-61
2022/05/11 13:59:46;;;;;;;;;;;25.00;90.70;;;;;;5045010;28;20308;-59
2022/05/11 14:02:14;;;;;;;;;;;25.00;90.70;;;;;;5033007;28;19935;-59
2022/05/11 14:04:42;;;;;;;;;;;25.00;90.70;;;;;;5035184;28;20398;-59
2022/05/11 14:07:11;;;;;;;;;;;25.10;90.80;;;;;;5047689;28;20364;-58
2022/05/11 14:09:40;;;;;;;;;;;25.20;90.60;;;;;;5043308;28;19933;-59
2022/05/11 14:12:09;;;;;;;;;;;25.20;90.80;;;;;;5039500;28;20464;-60
2022/05/11 14:14:36;;;;;;;;;;;25.30;90.80;;;;;;5036516;28;19933;-59
2022/05/11 14:17:11;;;;;;;;;;;25.30;90.80;;;;;;5046442;28;19935;-60
2022/05/11 14:19:38;;;;;;;;;;;25.30;90.90;;;;;;5033331;28;19935;-58
2022/05/11 14:22:06;;;;;;;;;;;25.40;91.00;;;;;;5048933;28;20017;-62
2022/05/11 14:24:34;;;;;;;;;;;25.40;91.10;;;;;;5045197;28;19932;-62
2022/05/11 14:27:01;;;;;;;;;;;25.50;91.10;;;;;;5049781;28;19928;-57
2022/05/11 14:29:28;;;;;;;;;;;25.50;91.00;;;;;;5043371;28;19929;-59
2022/05/11 14:31:56;;;;;;;;;;;25.60;90.90;;;;;;5044345;28;19925;-60
2022/05/11 14:34:26;;;;;;;;;;;25.60;90.80;;;;;;5045524;28;19933;-60
2022/05/11 14:36:53;;;;;;;;;;;25.70;88.30;;;;;;5050014;28;19924;-59
2022/05/11 14:39:23;;;;;;;;;;;25.90;86.80;;;;;;5043581;28;19929;-59
2022/05/11 14:41:50;;;;;;;;;;;26.00;86.50;;;;;;5024711;28;20419;-59
2022/05/11 14:44:18;;;;;;;;;;;26.00;85.70;;;;;;5043385;28;20315;-59
2022/05/11 14:46:54;;;;;;;;;;;26.10;83.80;;;;;;5042830;28;19932;-60
2022/05/11 14:49:22;;;;;;;;;;;26.20;82.90;;;;;;5035635;28;19932;-58
2022/05/11 14:51:49;;;;;;;;;;;26.20;82.60;;;;;;5050980;28;19929;-59
2022/05/11 14:54:16;;;;;;;;;;;26.20;81.80;;;;;;5045125;28;20407;-60
2022/05/11 15:01:55;;;;;;;;;;;26.30;82.00;;;;;;5049834;28;20380;-60
2022/05/11 15:02:18;;;;;;;;;;;26.30;83.70;;;;;;5050953;28;20362;-60
2022/05/11 15:04:46;;;;;;;;;;;26.30;83.40;;;;;;5040240;28;19932;-58
2022/05/11 15:07:15;;;;;;;;;;;26.30;83.50;;;;;;5037009;28;20537;-58
2022/05/11 15:09:42;;;;;;;;;;;26.50;81.10;;;;;;5035775;28;19928;-59
2022/05/11 15:14:56;;;;;;;;;;;26.60;79.50;;;;;;5036807;28;19956;-60
2022/05/11 15:17:24;;;;;;;;;;;26.70;78.20;;;;;;5041835;28;19933;-61
2022/05/11 15:20:13;;;;;;;;;;;26.90;77.90;;;;;;5036885;28;19936;-57